Time;durP1;ratioP1;P1;durP2;ratioP2;P2;SDS_P1;SDS_P2;PMS_P1;PMS_P2;Temp;Humidity;BMP_temperature;BMP_pressure;BME280_temperature;BME280_humidity;BME280_pressure;Samples;Min_cycle;Max_cycle;Signal;HPM_P1;HPM_P2
2023/09/19 00:00:27;;;;;;;;;0.25;0.25;;;;;;;;5050059;28;8799;-79
2023/09/19 00:02:57;;;;;;;;;2.00;2.00;;;;;;;;5050526;28;8869;-79
2023/09/19 00:05:25;;;;;;;;;1.00;1.00;;;;;;;;5050684;28;8865;-79
2023/09/19 00:07:54;;;;;;;;;1.75;1.25;;;;;;;;5053585;28;8876;-84
2023/09/19 00:10:24;;;;;;;;;1.50;1.00;;;;;;;;5052627;28;8865;-77
2023/09/19 00:12:52;;;;;;;;;1.00;1.00;;;;;;;;5040640;28;8860;-79
2023/09/19 00:15:20;;;;;;;;;2.25;2.25;;;;;;;;5049893;28;8857;-78
2023/09/19 00:17:47;;;;;;;;;2.00;2.00;;;;;;;;5050268;28;8975;-79
2023/09/19 00:20:17;;;;;;;;;1.00;1.00;;;;;;;;5049853;28;8849;-80
2023/09/19 00:22:44;;;;;;;;;2.25;1.00;;;;;;;;5050476;28;8861;-78
2023/09/19 00:25:15;;;;;;;;;1.00;1.00;;;;;;;;5050282;28;8834;-78
2023/09/19 00:27:43;;;;;;;;;3.75;1.00;;;;;;;;5050015;28;8858;-80
2023/09/19 00:30:15;;;;;;;;;1.00;1.00;;;;;;;;5048749;28;8861;-81
2023/09/19 00:32:44;;;;;;;;;0.75;0.75;;;;;;;;5049991;28;9671;-79
2023/09/19 00:35:12;;;;;;;;;1.75;1.00;;;;;;;;5048801;28;8841;-81
2023/09/19 00:37:41;;;;;;;;;1.00;1.00;;;;;;;;5050071;28;8858;-79
2023/09/19 00:40:11;;;;;;;;;1.00;1.00;;;;;;;;5049576;28;8996;-79
2023/09/19 00:42:40;;;;;;;;;0.00;0.00;;;;;;;;5051358;28;8943;-81
2023/09/19 00:45:11;;;;;;;;;0.75;0.75;;;;;;;;5051728;28;8950;-77
2023/09/19 00:47:39;;;;;;;;;1.00;1.00;;;;;;;;5050849;28;8873;-78
2023/09/19 00:50:07;;;;;;;;;1.00;0.00;;;;;;;;5040089;28;8861;-78
2023/09/19 00:52:36;;;;;;;;;1.00;1.00;;;;;;;;5052902;28;8838;-79
2023/09/19 00:55:06;;;;;;;;;0.00;0.00;;;;;;;;5055149;28;8857;-81
2023/09/19 00:57:34;;;;;;;;;5.00;1.00;;;;;;;;5054834;28;8879;-80
2023/09/19 01:00:05;;;;;;;;;1.00;1.00;;;;;;;;5056510;28;9001;-77
2023/09/19 01:02:33;;;;;;;;;0.50;0.00;;;;;;;;5074991;28;8789;-80
2023/09/19 01:05:01;;;;;;;;;2.50;1.00;;;;;;;;5076963;28;8860;-83
2023/09/19 01:07:29;;;;;;;;;1.00;1.00;;;;;;;;5070042;28;8875;-82
2023/09/19 01:09:58;;;;;;;;;1.00;1.00;;;;;;;;5070216;28;8878;-89
2023/09/19 01:12:34;;;;;;;;;4.00;2.00;;;;;;;;5069369;28;8840;-82
2023/09/19 01:15:10;;;;;;;;;2.00;1.00;;;;;;;;5069247;28;8855;-81
2023/09/19 01:17:48;;;;;;;;;1.25;1.25;;;;;;;;5068801;28;8844;-81
2023/09/19 01:20:28;;;;;;;;;2.25;2.25;;;;;;;;5069231;28;8852;-77
2023/09/19 01:23:05;;;;;;;;;1.00;1.00;;;;;;;;5070190;28;8887;-78
2023/09/19 01:26:08;;;;;;;;;2.00;0.00;;;;;;;;5069284;28;8837;-78
2023/09/19 01:28:54;;;;;;;;;0.50;0.50;;;;;;;;5068326;28;8828;-79
2023/09/19 01:31:24;;;;;;;;;0.00;0.00;;;;;;;;5068776;28;8977;-78
2023/09/19 01:34:00;;;;;;;;;0.75;0.75;;;;;;;;5082578;28;9626;-82
2023/09/19 01:36:33;;;;;;;;;1.00;1.00;;;;;;;;5070369;28;8860;-79
2023/09/19 01:39:05;;;;;;;;;0.00;0.00;;;;;;;;5070043;28;8972;-81
2023/09/19 01:41:53;;;;;;;;;0.50;0.00;;;;;;;;5068358;28;8837;-79
2023/09/19 01:44:26;;;;;;;;;0.75;0.75;;;;;;;;5068638;28;9003;-79
2023/09/19 01:47:01;;;;;;;;;1.00;1.00;;;;;;;;5068796;28;8869;-78
2023/09/19 01:49:37;;;;;;;;;1.00;1.00;;;;;;;;5067942;28;8836;-77
2023/09/19 01:52:13;;;;;;;;;1.00;1.00;;;;;;;;5067575;28;8875;-79
2023/09/19 01:54:47;;;;;;;;;1.00;1.00;;;;;;;;5070407;28;8872;-81
2023/09/19 01:57:19;;;;;;;;;1.00;1.00;;;;;;;;5070040;28;8855;-76
2023/09/19 01:59:52;;;;;;;;;2.50;1.00;;;;;;;;5061561;28;8868;-78
2023/09/19 02:02:22;;;;;;;;;1.75;0.25;;;;;;;;5068653;28;10133;-79
2023/09/19 02:04:50;;;;;;;;;1.00;1.00;;;;;;;;5068399;28;8884;-79
2023/09/19 02:07:17;;;;;;;;;0.75;0.00;;;;;;;;5067933;28;8849;-77
2023/09/19 02:09:45;;;;;;;;;0.25;0.25;;;;;;;;5068771;28;9662;-81
2023/09/19 02:12:13;;;;;;;;;1.00;1.00;;;;;;;;5068184;28;8845;-78
2023/09/19 02:14:40;;;;;;;;;2.50;1.00;;;;;;;;5068675;28;8902;-78
2023/09/19 02:17:11;;;;;;;;;1.00;1.00;;;;;;;;5067957;28;8840;-80
2023/09/19 02:19:40;;;;;;;;;2.75;1.00;;;;;;;;5068759;28;8882;-79
2023/09/19 02:22:10;;;;;;;;;3.50;0.50;;;;;;;;5069710;28;9603;-79
2023/09/19 02:24:38;;;;;;;;;2.75;2.00;;;;;;;;5069825;28;8867;-79
2023/09/19 02:27:07;;;;;;;;;4.75;1.00;;;;;;;;5068570;28;8860;-79
2023/09/19 02:29:34;;;;;;;;;2.00;0.75;;;;;;;;5069190;28;8864;-78
2023/09/19 02:32:02;;;;;;;;;1.00;1.00;;;;;;;;5069629;28;8851;-78
2023/09/19 02:34:30;;;;;;;;;3.25;0.00;;;;;;;;5073826;28;8871;-78
2023/09/19 02:36:58;;;;;;;;;2.75;2.00;;;;;;;;5074217;28;8827;-85
2023/09/19 02:39:26;;;;;;;;;1.50;1.50;;;;;;;;5073645;28;8849;-80
2023/09/19 02:41:53;;;;;;;;;2.00;1.25;;;;;;;;5073578;28;8879;-79
2023/09/19 02:44:20;;;;;;;;;1.75;1.00;;;;;;;;5073566;28;8868;-84
2023/09/19 02:46:48;;;;;;;;;2.00;0.50;;;;;;;;5068483;28;8914;-80
2023/09/19 02:49:15;;;;;;;;;1.25;1.25;;;;;;;;5067864;28;9612;-87
2023/09/19 02:51:42;;;;;;;;;1.00;1.00;;;;;;;;5067796;28;8948;-80
2023/09/19 02:54:12;;;;;;;;;3.25;1.00;;;;;;;;5067966;28;8971;-80
2023/09/19 02:56:39;;;;;;;;;2.25;1.00;;;;;;;;5067807;28;8953;-81
2023/09/19 02:59:09;;;;;;;;;1.25;1.00;;;;;;;;5067118;28;8852;-84
2023/09/19 03:01:38;;;;;;;;;2.00;2.00;;;;;;;;5067044;28;8769;-80
2023/09/19 03:04:06;;;;;;;;;0.75;0.75;;;;;;;;5061692;28;8856;-80
2023/09/19 03:06:34;;;;;;;;;1.75;1.75;;;;;;;;5071010;28;8848;-78
2023/09/19 03:09:05;;;;;;;;;0.75;0.75;;;;;;;;5073155;28;8917;-78
2023/09/19 03:11:34;;;;;;;;;1.50;1.00;;;;;;;;5073633;28;8845;-81
2023/09/19 03:14:02;;;;;;;;;1.50;1.00;;;;;;;;5074285;28;8973;-81
2023/09/19 03:16:31;;;;;;;;;3.50;1.00;;;;;;;;5074051;28;9713;-78
2023/09/19 03:18:59;;;;;;;;;1.00;1.00;;;;;;;;5072760;28;8836;-79
2023/09/19 03:21:29;;;;;;;;;1.50;1.00;;;;;;;;5071488;28;9592;-78
2023/09/19 03:23:56;;;;;;;;;0.75;0.75;;;;;;;;5065725;28;8864;-84
2023/09/19 03:26:26;;;;;;;;;2.75;1.25;;;;;;;;5071444;28;8943;-83
2023/09/19 03:28:55;;;;;;;;;2.00;0.50;;;;;;;;5071218;28;8849;-83
2023/09/19 03:31:22;;;;;;;;;0.75;0.75;;;;;;;;5070874;28;8901;-82
2023/09/19 03:33:50;;;;;;;;;2.50;1.25;;;;;;;;5071515;28;8825;-85
2023/09/19 03:36:17;;;;;;;;;1.00;1.00;;;;;;;;5071749;28;8856;-85
2023/09/19 03:38:44;;;;;;;;;1.50;1.25;;;;;;;;5075083;28;8856;-85
2023/09/19 03:41:14;;;;;;;;;1.25;1.25;;;;;;;;5073631;28;8853;-79
2023/09/19 03:43:41;;;;;;;;;2.00;0.00;;;;;;;;5071422;28;8844;-81
2023/09/19 03:46:09;;;;;;;;;1.25;1.00;;;;;;;;5074631;28;8841;-79
2023/09/19 03:48:37;;;;;;;;;0.25;0.25;;;;;;;;5069966;28;8845;-80
2023/09/19 03:51:04;;;;;;;;;1.00;1.00;;;;;;;;5071308;28;8845;-81
2023/09/19 03:53:31;;;;;;;;;1.25;1.00;;;;;;;;5063453;28;8845;-77
2023/09/19 03:56:00;;;;;;;;;3.00;1.00;;;;;;;;5071769;28;8964;-77
2023/09/19 03:58:27;;;;;;;;;4.00;1.00;;;;;;;;5069797;28;8868;-78
2023/09/19 04:00:56;;;;;;;;;1.00;1.00;;;;;;;;5068148;28;8777;-81
2023/09/19 04:03:34;;;;;;;;;4.25;2.00;;;;;;;;5064484;28;8959;-81
2023/09/19 04:06:04;;;;;;;;;1.00;1.00;;;;;;;;5070220;28;8856;-79
2023/09/19 04:08:32;;;;;;;;;1.00;1.00;;;;;;;;5070218;28;9618;-80
2023/09/19 04:10:59;;;;;;;;;2.00;1.50;;;;;;;;5072895;28;8884;-79
2023/09/19 04:13:28;;;;;;;;;0.25;0.25;;;;;;;;5074193;28;8828;-81
2023/09/19 04:15:55;;;;;;;;;3.00;0.00;;;;;;;;5074771;28;8864;-80
2023/09/19 04:18:25;;;;;;;;;5.75;1.00;;;;;;;;5074874;28;8856;-79
2023/09/19 04:20:52;;;;;;;;;1.25;1.25;;;;;;;;5075525;28;8986;-80
2023/09/19 04:23:20;;;;;;;;;1.00;1.00;;;;;;;;5074851;28;8848;-78
2023/09/19 04:25:48;;;;;;;;;0.75;0.75;;;;;;;;5071261;28;8887;-83
2023/09/19 04:28:15;;;;;;;;;2.50;1.75;;;;;;;;5069569;28;9094;-82
2023/09/19 04:30:42;;;;;;;;;1.00;1.00;;;;;;;;5068755;28;8792;-82
2023/09/19 04:33:09;;;;;;;;;0.50;0.50;;;;;;;;5069216;28;8848;-82
2023/09/19 04:35:43;;;;;;;;;0.75;0.75;;;;;;;;5070447;28;8856;-82
2023/09/19 04:38:11;;;;;;;;;2.00;1.00;;;;;;;;5066068;28;8872;-82
2023/09/19 04:40:39;;;;;;;;;2.00;2.00;;;;;;;;5068567;28;8864;-83
2023/09/19 04:43:10;;;;;;;;;0.50;0.50;;;;;;;;5069604;28;8844;-82
2023/09/19 04:45:37;;;;;;;;;0.50;0.25;;;;;;;;5068709;28;8941;-82
2023/09/19 04:48:08;;;;;;;;;2.25;1.25;;;;;;;;5069246;28;8922;-82
2023/09/19 04:50:38;;;;;;;;;1.75;0.75;;;;;;;;5068953;28;8837;-81
2023/09/19 04:53:07;;;;;;;;;0.75;0.75;;;;;;;;5070957;28;8859;-81
2023/09/19 04:55:36;;;;;;;;;4.00;1.00;;;;;;;;5070615;28;8829;-83
2023/09/19 04:58:03;;;;;;;;;1.00;1.00;;;;;;;;5070243;28;9058;-78
2023/09/19 05:00:35;;;;;;;;;3.00;0.75;;;;;;;;5070345;28;8812;-81
2023/09/19 05:03:03;;;;;;;;;2.50;2.00;;;;;;;;5069223;28;8900;-80
2023/09/19 05:05:31;;;;;;;;;0.75;0.75;;;;;;;;5067644;28;8887;-71
2023/09/19 05:08:05;;;;;;;;;3.00;1.25;;;;;;;;5069311;28;8870;-77
2023/09/19 05:10:37;;;;;;;;;1.00;1.00;;;;;;;;5068121;28;8839;-76
2023/09/19 05:13:08;;;;;;;;;1.50;1.50;;;;;;;;5067779;28;8864;-75
2023/09/19 05:15:36;;;;;;;;;0.50;0.50;;;;;;;;5068159;28;8930;-79
2023/09/19 05:18:05;;;;;;;;;2.00;1.00;;;;;;;;5067829;28;8856;-71
2023/09/19 05:20:35;;;;;;;;;1.00;1.00;;;;;;;;5067822;28;8864;-73
2023/09/19 05:23:05;;;;;;;;;1.00;1.00;;;;;;;;5067753;28;8832;-72
2023/09/19 05:25:37;;;;;;;;;1.00;1.00;;;;;;;;5067885;28;8884;-71
2023/09/19 05:28:05;;;;;;;;;3.50;1.00;;;;;;;;5067067;28;8841;-77
2023/09/19 05:30:38;;;;;;;;;0.50;0.25;;;;;;;;5067321;28;8861;-70
2023/09/19 05:33:08;;;;;;;;;1.00;1.00;;;;;;;;5067527;28;8872;-73
2023/09/19 05:35:39;;;;;;;;;0.75;0.75;;;;;;;;5067774;28;8970;-71
2023/09/19 05:38:08;;;;;;;;;2.00;0.50;;;;;;;;5067092;28;8843;-71
2023/09/19 05:40:38;;;;;;;;;0.50;0.50;;;;;;;;5067055;28;8868;-72
2023/09/19 05:43:06;;;;;;;;;2.00;0.00;;;;;;;;5056746;28;8864;-72
2023/09/19 05:45:33;;;;;;;;;3.50;2.00;;;;;;;;5068408;28;8860;-71
2023/09/19 05:48:09;;;;;;;;;1.00;1.00;;;;;;;;5069601;28;8856;-75
2023/09/19 05:50:36;;;;;;;;;2.75;1.25;;;;;;;;5069073;28;8926;-71
2023/09/19 05:53:04;;;;;;;;;2.50;1.75;;;;;;;;5070582;28;8848;-73
2023/09/19 05:55:31;;;;;;;;;0.25;0.25;;;;;;;;5070288;28;8840;-73
2023/09/19 05:58:04;;;;;;;;;6.75;1.00;;;;;;;;5070679;28;8882;-72
2023/09/19 06:00:32;;;;;;;;;1.25;1.25;;;;;;;;5069788;28;8769;-73
2023/09/19 06:03:02;;;;;;;;;4.00;2.00;;;;;;;;5068259;28;8979;-74
2023/09/19 06:05:31;;;;;;;;;1.00;1.00;;;;;;;;5066989;28;8848;-72
2023/09/19 06:08:00;;;;;;;;;2.75;1.00;;;;;;;;5067865;28;8879;-70
2023/09/19 06:10:27;;;;;;;;;1.00;1.00;;;;;;;;5067504;28;8960;-71
2023/09/19 06:12:57;;;;;;;;;0.50;0.50;;;;;;;;5066699;28;8876;-70
2023/09/19 06:15:26;;;;;;;;;2.00;0.00;;;;;;;;5056692;28;9737;-72
2023/09/19 06:17:55;;;;;;;;;5.50;1.50;;;;;;;;5066883;28;8929;-71
2023/09/19 06:20:23;;;;;;;;;1.00;0.75;;;;;;;;5066514;28;9686;-71
2023/09/19 06:22:51;;;;;;;;;1.50;1.00;;;;;;;;5067043;28;9733;-71
2023/09/19 06:25:20;;;;;;;;;1.25;1.25;;;;;;;;5067019;28;8845;-74
2023/09/19 06:27:47;;;;;;;;;4.25;2.00;;;;;;;;5066993;28;8841;-71
2023/09/19 06:30:14;;;;;;;;;1.00;1.00;;;;;;;;5066289;28;8859;-72
2023/09/19 06:32:44;;;;;;;;;2.00;2.00;;;;;;;;5066366;28;8840;-74
2023/09/19 06:35:11;;;;;;;;;1.00;1.00;;;;;;;;5056388;28;8844;-73
2023/09/19 06:37:39;;;;;;;;;1.00;1.00;;;;;;;;5066359;28;8877;-75
2023/09/19 06:40:09;;;;;;;;;1.00;1.00;;;;;;;;5070749;28;8859;-74
2023/09/19 06:42:37;;;;;;;;;1.75;0.75;;;;;;;;5069957;28;8874;-72
2023/09/19 06:45:06;;;;;;;;;1.50;1.25;;;;;;;;5070943;28;8856;-73
2023/09/19 06:47:33;;;;;;;;;2.00;1.00;;;;;;;;5070401;28;8821;-77
2023/09/19 06:50:04;;;;;;;;;1.00;0.00;;;;;;;;5070956;28;8866;-74
2023/09/19 06:52:32;;;;;;;;;1.50;1.50;;;;;;;;5070244;28;8844;-74
2023/09/19 06:54:59;;;;;;;;;1.25;1.00;;;;;;;;5071002;28;8847;-73
2023/09/19 06:57:26;;;;;;;;;1.00;1.00;;;;;;;;5070167;28;8846;-70
2023/09/19 06:59:53;;;;;;;;;3.75;1.00;;;;;;;;5070629;28;8872;-73
2023/09/19 07:02:21;;;;;;;;;0.25;0.25;;;;;;;;5069433;28;8813;-71
2023/09/19 07:04:49;;;;;;;;;1.50;1.50;;;;;;;;5070875;28;8859;-71
2023/09/19 07:07:17;;;;;;;;;2.50;1.25;;;;;;;;5071326;28;9061;-71
2023/09/19 07:09:45;;;;;;;;;2.50;2.00;;;;;;;;5070357;28;8852;-75
2023/09/19 07:12:13;;;;;;;;;4.75;1.25;;;;;;;;5058329;28;8931;-74
2023/09/19 07:14:40;;;;;;;;;2.25;1.00;;;;;;;;5069937;28;8941;-75
2023/09/19 07:17:07;;;;;;;;;3.00;1.00;;;;;;;;5070078;28;8844;-71
2023/09/19 07:19:34;;;;;;;;;1.25;1.25;;;;;;;;5069391;28;9681;-71
2023/09/19 07:22:02;;;;;;;;;1.25;1.00;;;;;;;;5070713;28;8844;-71
2023/09/19 07:24:31;;;;;;;;;0.00;0.00;;;;;;;;5070006;28;8925;-72
2023/09/19 07:26:58;;;;;;;;;2.00;1.00;;;;;;;;5071139;28;8844;-70
2023/09/19 07:29:26;;;;;;;;;2.25;1.00;;;;;;;;5073023;28;8980;-72
2023/09/19 07:31:53;;;;;;;;;2.25;1.00;;;;;;;;5073650;28;8789;-72
2023/09/19 07:34:21;;;;;;;;;1.00;1.00;;;;;;;;5073760;28;8848;-70
2023/09/19 07:36:51;;;;;;;;;0.00;0.00;;;;;;;;5073878;28;8850;-76
2023/09/19 07:39:18;;;;;;;;;2.25;1.50;;;;;;;;5073494;28;8857;-70
2023/09/19 07:41:48;;;;;;;;;2.25;1.00;;;;;;;;5070805;28;8852;-78
2023/09/19 07:44:17;;;;;;;;;1.00;1.00;;;;;;;;5069479;28;8856;-71
2023/09/19 07:46:44;;;;;;;;;1.50;1.00;;;;;;;;5069809;28;8902;-76
2023/09/19 07:49:11;;;;;;;;;1.00;1.00;;;;;;;;5069293;28;8871;-72
2023/09/19 07:51:40;;;;;;;;;1.00;1.00;;;;;;;;5068971;28;8982;-71
2023/09/19 07:54:08;;;;;;;;;3.00;2.00;;;;;;;;5069503;28;8883;-75
2023/09/19 07:56:35;;;;;;;;;1.00;1.00;;;;;;;;5069703;28;8864;-74
2023/09/19 07:59:04;;;;;;;;;1.75;1.75;;;;;;;;5069892;28;8860;-73
2023/09/19 08:01:32;;;;;;;;;2.00;2.00;;;;;;;;5068519;28;8911;-76
2023/09/19 08:04:00;;;;;;;;;1.75;1.00;;;;;;;;5070284;28;8943;-75
2023/09/19 08:06:29;;;;;;;;;0.75;0.75;;;;;;;;5070193;28;8851;-74
2023/09/19 08:08:56;;;;;;;;;2.50;1.00;;;;;;;;5069226;28;9670;-73
2023/09/19 08:11:24;;;;;;;;;0.50;0.50;;;;;;;;5068341;28;8880;-70
2023/09/19 08:13:52;;;;;;;;;3.00;0.75;;;;;;;;5069270;28;8840;-70
2023/09/19 08:16:24;;;;;;;;;2.25;1.00;;;;;;;;5068842;28;8844;-72
2023/09/19 08:18:55;;;;;;;;;2.50;1.00;;;;;;;;5069319;28;8841;-72
2023/09/19 08:21:23;;;;;;;;;1.00;1.00;;;;;;;;5068754;28;8959;-71
2023/09/19 08:23:50;;;;;;;;;1.00;1.00;;;;;;;;5068782;28;8844;-71
2023/09/19 08:26:19;;;;;;;;;1.25;1.00;;;;;;;;5068656;28;8874;-73
2023/09/19 08:28:48;;;;;;;;;1.25;0.75;;;;;;;;5069101;28;8836;-74
2023/09/19 08:31:16;;;;;;;;;4.50;1.00;;;;;;;;5068228;28;8877;-76
2023/09/19 08:33:47;;;;;;;;;2.75;1.00;;;;;;;;5060586;28;8983;-72
2023/09/19 08:36:14;;;;;;;;;1.00;1.00;;;;;;;;5068398;28;9592;-71
2023/09/19 08:38:42;;;;;;;;;0.50;0.50;;;;;;;;5060586;28;8926;-71
2023/09/19 08:41:09;;;;;;;;;0.50;0.00;;;;;;;;5068568;28;8875;-71
2023/09/19 08:43:39;;;;;;;;;1.75;1.75;;;;;;;;5068265;28;8833;-71
2023/09/19 08:46:12;;;;;;;;;0.80;0.80;;;;;;;;5068058;28;8856;-72
2023/09/19 08:48:44;;;;;;;;;1.00;1.00;;;;;;;;5068284;28;8962;-72
2023/09/19 08:51:19;;;;;;;;;2.40;1.00;;;;;;;;5068174;28;8840;-71
2023/09/19 08:53:52;;;;;;;;;0.00;0.00;;;;;;;;5068445;28;8879;-72
2023/09/19 08:56:22;;;;;;;;;1.00;1.00;;;;;;;;5068120;28;8841;-73
2023/09/19 08:58:54;;;;;;;;;1.40;0.60;;;;;;;;5068331;28;8845;-71
2023/09/19 09:01:24;;;;;;;;;0.40;0.40;;;;;;;;5059109;28;8804;-70
2023/09/19 09:03:52;;;;;;;;;2.00;0.00;;;;;;;;5069094;28;8947;-70
2023/09/19 09:06:21;;;;;;;;;2.00;0.00;;;;;;;;5069757;28;8962;-73
2023/09/19 09:08:49;;;;;;;;;1.00;1.00;;;;;;;;5071415;28;8860;-72
2023/09/19 09:11:17;;;;;;;;;0.00;0.00;;;;;;;;5071278;28;8848;-69
2023/09/19 09:13:45;;;;;;;;;0.00;0.00;;;;;;;;5070900;28;8840;-70
2023/09/19 09:16:13;;;;;;;;;0.00;0.00;;;;;;;;5072482;28;8857;-70
2023/09/19 09:18:41;;;;;;;;;0.40;0.00;;;;;;;;5069807;28;8836;-71
2023/09/19 09:21:08;;;;;;;;;0.00;0.00;;;;;;;;5067624;28;8874;-72
2023/09/19 09:23:39;;;;;;;;;1.60;0.00;;;;;;;;5067811;28;8876;-70
2023/09/19 09:26:07;;;;;;;;;0.20;0.20;;;;;;;;5067838;28;9766;-71
2023/09/19 09:28:38;;;;;;;;;0.00;0.00;;;;;;;;5067789;28;8848;-71
2023/09/19 09:31:09;;;;;;;;;0.00;0.00;;;;;;;;5067396;28;8811;-78
2023/09/19 09:33:37;;;;;;;;;1.80;0.00;;;;;;;;5067560;28;8875;-71
2023/09/19 09:36:06;;;;;;;;;0.00;0.00;;;;;;;;5067188;28;8872;-71
2023/09/19 09:38:48;;;;;;;;;0.00;0.00;;;;;;;;5067632;28;8905;-71
2023/09/19 09:41:27;;;;;;;;;0.00;0.00;;;;;;;;5067482;28;8966;-72
2023/09/19 09:43:54;;;;;;;;;0.40;0.40;;;;;;;;5067594;28;8852;-71
2023/09/19 09:49:24;;;;;;;;;0.00;0.00;;;;;;;;5067496;28;8861;-71
2023/09/19 09:52:00;;;;;;;;;1.20;0.00;;;;;;;;5067571;28;8859;-72
2023/09/19 09:54:36;;;;;;;;;0.00;0.00;;;;;;;;5056278;28;8856;-71
2023/09/19 09:57:13;;;;;;;;;1.00;0.00;;;;;;;;5067313;28;8833;-71
2023/09/19 09:59:49;;;;;;;;;0.40;0.40;;;;;;;;5067372;28;8898;-73
2023/09/19 10:02:23;;;;;;;;;0.60;0.60;;;;;;;;5066235;28;8830;-71
2023/09/19 10:05:09;;;;;;;;;0.20;0.20;;;;;;;;5067488;28;8875;-72
2023/09/19 10:07:40;;;;;;;;;0.00;0.00;;;;;;;;5057804;28;8878;-71
2023/09/19 10:10:21;;;;;;;;;0.00;0.00;;;;;;;;5066755;28;8857;-71
2023/09/19 10:12:49;;;;;;;;;0.00;0.00;;;;;;;;5067008;28;8844;-71
2023/09/19 10:15:20;;;;;;;;;0.00;0.00;;;;;;;;5067144;28;8872;-70
2023/09/19 10:17:47;;;;;;;;;0.60;0.00;;;;;;;;5067230;28;8987;-70
2023/09/19 10:20:35;;;;;;;;;0.00;0.00;;;;;;;;5067270;28;8970;-72
2023/09/19 10:23:12;;;;;;;;;0.20;0.20;;;;;;;;5067618;28;8856;-69
2023/09/19 10:25:42;;;;;;;;;0.00;0.00;;;;;;;;5067082;28;8948;-69
2023/09/19 10:28:11;;;;;;;;;1.80;0.00;;;;;;;;5066761;28;8855;-69
2023/09/19 10:30:41;;;;;;;;;0.00;0.00;;;;;;;;5067614;28;8768;-69
2023/09/19 10:33:09;;;;;;;;;1.20;0.00;;;;;;;;5067765;28;8840;-69
2023/09/19 10:35:40;;;;;;;;;2.00;0.20;;;;;;;;5066948;28;9642;-69
2023/09/19 10:38:08;;;;;;;;;1.20;0.00;;;;;;;;5063108;28;8856;-69
2023/09/19 10:40:36;;;;;;;;;3.00;0.00;;;;;;;;5067415;28;8913;-70
2023/09/19 10:43:06;;;;;;;;;0.00;0.00;;;;;;;;5069188;28;9069;-72
2023/09/19 10:45:35;;;;;;;;;2.80;0.00;;;;;;;;5069792;28;8860;-70
2023/09/19 10:48:04;;;;;;;;;0.00;0.00;;;;;;;;5071175;28;8874;-69
2023/09/19 10:50:34;;;;;;;;;0.00;0.00;;;;;;;;5070395;28;8982;-69
2023/09/19 10:53:07;;;;;;;;;0.00;0.00;;;;;;;;5068250;28;8844;-69
2023/09/19 10:55:35;;;;;;;;;0.00;0.00;;;;;;;;5067782;28;8860;-69
2023/09/19 10:58:13;;;;;;;;;2.80;0.20;;;;;;;;5067038;28;8994;-71
2023/09/19 11:00:55;;;;;;;;;1.00;1.00;;;;;;;;5066212;28;8808;-71
2023/09/19 11:03:30;;;;;;;;;0.00;0.00;;;;;;;;5067378;28;8856;-71
2023/09/19 11:06:13;;;;;;;;;0.00;0.00;;;;;;;;5066852;28;8852;-80
2023/09/19 11:09:16;;;;;;;;;0.00;0.00;;;;;;;;5064906;28;8954;-72
2023/09/19 11:11:50;;;;;;;;;0.60;0.00;;;;;;;;5066595;28;8868;-70
2023/09/19 11:14:52;;;;;;;;;0.00;0.00;;;;;;;;5066728;28;8856;-69
2023/09/19 11:17:32;;;;;;;;;0.80;0.80;;;;;;;;5056312;28;8844;-70
2023/09/19 11:23:25;;;;;;;;;0.00;0.00;;;;;;;;5062967;28;8921;-78
2023/09/19 11:25:54;;;;;;;;;0.00;0.00;;;;;;;;5066707;28;8840;-72
2023/09/19 11:28:39;;;;;;;;;0.00;0.00;;;;;;;;5070200;28;8879;-72
2023/09/19 11:31:55;;;;;;;;;0.00;0.00;;;;;;;;5069902;28;8904;-73
2023/09/19 11:34:45;;;;;;;;;1.80;1.80;;;;;;;;5069715;28;8837;-72
2023/09/19 11:38:15;;;;;;;;;1.40;0.00;;;;;;;;5069623;28;8958;-71
2023/09/19 11:40:55;;;;;;;;;0.00;0.00;;;;;;;;5064923;28;8849;-71
2023/09/19 11:43:40;;;;;;;;;2.00;2.00;;;;;;;;5069975;28;8914;-71
2023/09/19 11:46:08;;;;;;;;;2.60;2.00;;;;;;;;5069012;28;8878;-69
2023/09/19 11:48:37;;;;;;;;;2.60;1.60;;;;;;;;5069812;28;8958;-69
2023/09/19 11:51:27;;;;;;;;;2.40;2.40;;;;;;;;5057885;28;8875;-70
2023/09/19 11:53:55;;;;;;;;;1.80;1.80;;;;;;;;5069366;28;8878;-70
2023/09/19 11:56:24;;;;;;;;;0.80;0.80;;;;;;;;5069867;28;8874;-71
2023/09/19 11:58:53;;;;;;;;;1.60;0.00;;;;;;;;5068956;28;8849;-70
2023/09/19 12:01:24;;;;;;;;;0.40;0.00;;;;;;;;5069338;28;8788;-73
2023/09/19 12:03:56;;;;;;;;;1.20;0.00;;;;;;;;5069197;28;8906;-72
2023/09/19 12:06:26;;;;;;;;;0.00;0.00;;;;;;;;5069567;28;8891;-74
2023/09/19 12:08:55;;;;;;;;;1.40;1.40;;;;;;;;5068989;28;8848;-76
2023/09/19 12:11:24;;;;;;;;;0.80;0.80;;;;;;;;5069489;28;8866;-72
2023/09/19 12:13:53;;;;;;;;;1.20;1.20;;;;;;;;5056858;28;8841;-71
2023/09/19 12:16:22;;;;;;;;;0.80;0.80;;;;;;;;5069075;28;8868;-73
2023/09/19 12:18:53;;;;;;;;;0.00;0.00;;;;;;;;5070031;28;9623;-73
2023/09/19 12:21:31;;;;;;;;;2.20;0.80;;;;;;;;5072393;28;8859;-74
2023/09/19 12:24:05;;;;;;;;;0.00;0.00;;;;;;;;5072493;28;8902;-70
2023/09/19 12:26:41;;;;;;;;;0.00;0.00;;;;;;;;5073146;28;8971;-74
2023/09/19 12:29:14;;;;;;;;;0.80;0.00;;;;;;;;5072581;28;8840;-71
2023/09/19 12:31:50;;;;;;;;;0.00;0.00;;;;;;;;5060056;28;8858;-72
2023/09/19 12:34:20;;;;;;;;;0.20;0.00;;;;;;;;5069702;28;8845;-75
2023/09/19 12:36:49;;;;;;;;;1.60;0.00;;;;;;;;5069632;28;8957;-85
2023/09/19 12:39:26;;;;;;;;;0.80;0.80;;;;;;;;5067629;28;8869;-80
2023/09/19 12:41:54;;;;;;;;;0.00;0.00;;;;;;;;5070397;28;8856;-76
2023/09/19 12:44:25;;;;;;;;;0.20;0.20;;;;;;;;5066671;28;8868;-82
2023/09/19 12:46:54;;;;;;;;;0.00;0.00;;;;;;;;5056961;28;8843;-76
2023/09/19 12:49:22;;;;;;;;;0.00;0.00;;;;;;;;5069066;28;8901;-70
2023/09/19 12:51:58;;;;;;;;;1.00;0.00;;;;;;;;5068463;28;8841;-74
2023/09/19 12:54:27;;;;;;;;;0.60;0.00;;;;;;;;5068426;28;8867;-74
2023/09/19 12:56:54;;;;;;;;;0.00;0.00;;;;;;;;5068242;28;8995;-75
2023/09/19 12:59:32;;;;;;;;;0.00;0.00;;;;;;;;5068866;28;8856;-78
2023/09/19 13:02:07;;;;;;;;;1.40;1.00;;;;;;;;5067139;28;8836;-71
2023/09/19 13:04:40;;;;;;;;;1.80;0.00;;;;;;;;5068578;28;8856;-70
2023/09/19 13:07:10;;;;;;;;;0.60;0.60;;;;;;;;5066571;28;9463;-71
2023/09/19 13:09:39;;;;;;;;;0.00;0.00;;;;;;;;5068634;28;8926;-82
2023/09/19 13:12:07;;;;;;;;;0.20;0.20;;;;;;;;5068594;28;8852;-77
2023/09/19 13:14:37;;;;;;;;;0.60;0.60;;;;;;;;5068563;28;8863;-84
2023/09/19 13:17:15;;;;;;;;;0.00;0.00;;;;;;;;5056574;28;8844;-79
2023/09/19 13:19:48;;;;;;;;;0.00;0.00;;;;;;;;5069032;28;8845;-71
2023/09/19 13:22:39;;;;;;;;;0.20;0.20;;;;;;;;5070377;28;8856;-71
2023/09/19 13:25:13;;;;;;;;;0.00;0.00;;;;;;;;5069848;28;9638;-75
2023/09/19 13:27:42;;;;;;;;;0.00;0.00;;;;;;;;5068903;28;8861;-73
2023/09/19 13:30:11;;;;;;;;;0.00;0.00;;;;;;;;5067939;28;9349;-71
2023/09/19 13:32:39;;;;;;;;;0.20;0.20;;;;;;;;5067513;28;8840;-75
2023/09/19 13:35:08;;;;;;;;;3.00;1.00;;;;;;;;5068188;28;9595;-72
2023/09/19 13:37:38;;;;;;;;;1.40;0.80;;;;;;;;5067815;28;8841;-75
2023/09/19 13:40:08;;;;;;;;;1.00;1.00;;;;;;;;5068064;28;8886;-71
2023/09/19 13:42:36;;;;;;;;;0.40;0.40;;;;;;;;5067686;28;9770;-74
2023/09/19 13:45:04;;;;;;;;;0.00;0.00;;;;;;;;5068074;28;8853;-76
2023/09/19 13:47:32;;;;;;;;;0.20;0.20;;;;;;;;5066582;28;8852;-71
2023/09/19 13:50:00;;;;;;;;;0.00;0.00;;;;;;;;5067929;28;8878;-78
2023/09/19 13:52:29;;;;;;;;;0.80;0.80;;;;;;;;5068084;28;8856;-70
2023/09/19 13:54:57;;;;;;;;;0.00;0.00;;;;;;;;5056716;28;8837;-70
2023/09/19 13:57:25;;;;;;;;;0.00;0.00;;;;;;;;5068101;28;8879;-70
2023/09/19 13:59:54;;;;;;;;;0.20;0.20;;;;;;;;5069708;28;8832;-74
2023/09/19 14:02:22;;;;;;;;;1.80;0.00;;;;;;;;5071212;28;8825;-75
2023/09/19 14:04:49;;;;;;;;;1.80;0.00;;;;;;;;5071157;28;8852;-71
2023/09/19 14:07:17;;;;;;;;;1.80;1.80;;;;;;;;5071249;28;8998;-81
2023/09/19 14:09:45;;;;;;;;;0.40;0.40;;;;;;;;5072398;28;8971;-82
2023/09/19 14:12:13;;;;;;;;;0.80;0.00;;;;;;;;5067816;28;8860;-75
2023/09/19 14:14:42;;;;;;;;;0.80;0.00;;;;;;;;5067794;28;8860;-77
2023/09/19 14:17:09;;;;;;;;;2.20;0.40;;;;;;;;5055877;28;9129;-75
2023/09/19 14:19:36;;;;;;;;;0.80;0.80;;;;;;;;5067490;28;8840;-71
2023/09/19 14:22:07;;;;;;;;;2.20;0.20;;;;;;;;5067060;28;8874;-73
2023/09/19 14:24:35;;;;;;;;;0.00;0.00;;;;;;;;5067358;28;9470;-81
2023/09/19 14:27:03;;;;;;;;;1.80;0.80;;;;;;;;5067094;28;8903;-72
2023/09/19 14:29:31;;;;;;;;;0.20;0.20;;;;;;;;5067142;28;8859;-79
2023/09/19 14:32:00;;;;;;;;;0.00;0.00;;;;;;;;5067634;28;8805;-77
2023/09/19 14:34:27;;;;;;;;;0.80;0.80;;;;;;;;5069758;28;8878;-76
2023/09/19 14:36:55;;;;;;;;;0.80;0.80;;;;;;;;5067918;28;9607;-75
2023/09/19 14:39:23;;;;;;;;;0.80;0.80;;;;;;;;5067837;28;8883;-81
2023/09/19 14:41:50;;;;;;;;;3.60;1.80;;;;;;;;5067921;28;8856;-79
2023/09/19 14:44:17;;;;;;;;;2.00;2.00;;;;;;;;5066876;28;8954;-78
2023/09/19 14:46:45;;;;;;;;;1.20;0.20;;;;;;;;5067609;28;8864;-72
2023/09/19 14:49:16;;;;;;;;;3.40;1.00;;;;;;;;5065320;28;8876;-73
2023/09/19 14:51:44;;;;;;;;;1.00;0.80;;;;;;;;5066978;28;8853;-71
2023/09/19 14:54:16;;;;;;;;;0.00;0.00;;;;;;;;5066653;28;8860;-75
2023/09/19 14:56:44;;;;;;;;;1.00;1.00;;;;;;;;5066981;28;8848;-72
2023/09/19 14:59:15;;;;;;;;;1.60;0.00;;;;;;;;5067879;28;9690;-73
2023/09/19 15:01:43;;;;;;;;;2.00;0.40;;;;;;;;5069784;28;8797;-71
2023/09/19 15:04:10;;;;;;;;;1.00;1.00;;;;;;;;5070648;28;8981;-72
2023/09/19 15:06:39;;;;;;;;;0.60;0.60;;;;;;;;5070264;28;8861;-75
2023/09/19 15:09:09;;;;;;;;;1.00;1.00;;;;;;;;5072213;28;8851;-82
2023/09/19 15:11:37;;;;;;;;;2.00;0.80;;;;;;;;5071742;28;8870;-74
2023/09/19 15:14:04;;;;;;;;;0.80;0.80;;;;;;;;5070806;28;9733;-77
2023/09/19 15:16:32;;;;;;;;;0.40;0.40;;;;;;;;5070066;28;8852;-73
2023/09/19 15:18:59;;;;;;;;;1.00;1.00;;;;;;;;5070232;28;8840;-72
2023/09/19 15:21:26;;;;;;;;;4.00;1.40;;;;;;;;5070126;28;8848;-73